McCall, Idaho
Current Conditions -  °F | °C
As of 9:00 PM on Saturday 20 Dec 2014 (Local Time) from KMYL Reporting Station
Light Snow Light Snow  
Wind Chill: 26°   Ceiling: 1100
Heat Index: 32°   Visibility: 1.2mi
Dew Point: 31°   Wind: 6mph
Humidity: 96%   Direction: 150°SSE
Pressure: 29.81"   Gusts: NA
Location:  44.91°N, 116.1°W
Report Text: KMYL 210400Z AUTO 15005KT 1 1/4SM -SN BR FEW005 OVC011 00/M01 A2981 RMK AO2 P0001 T00001006
Loading
Personal Weather Stations






























Interactive Weather Map New forecast layout! Learn more

10-Day Weather Forecast

Advertisements
Track Severe Weather on mobile